Time;durP1;ratioP1;P1;durP2;ratioP2;P2;SDS_P1;SDS_P2;PMS_P1;PMS_P2;Temp;Humidity;BMP_temperature;BMP_pressure;BME280_temperature;BME280_humidity;BME280_pressure;Samples;Min_cycle;Max_cycle;Signal;HPM_P1;HPM_P2
2022/05/01 00:00:13;;;;;;;58.00;34.55;;;;;;;;;;4915340;28;20432;-82
2022/05/01 00:02:39;;;;;;;56.22;33.92;;;;;;;;;;4926530;28;20103;-85
2022/05/01 00:05:07;;;;;;;63.95;33.83;;;;;;;;;;4920493;28;20484;-83
2022/05/01 00:07:34;;;;;;;63.80;33.00;;;;;;;;;;4931879;28;20048;-84
2022/05/01 00:10:00;;;;;;;54.95;33.65;;;;;;;;;;4932296;28;20082;-83
2022/05/01 00:12:29;;;;;;;62.78;33.22;;;;;;;;;;4929612;28;20087;-83
2022/05/01 00:14:55;;;;;;;60.83;32.92;;;;;;;;;;4928090;29;20095;-83
2022/05/01 00:17:22;;;;;;;60.78;33.63;;;;;;;;;;4929308;28;20048;-83
2022/05/01 00:19:49;;;;;;;59.00;33.22;;;;;;;;;;4932682;28;20075;-83
2022/05/01 00:22:22;;;;;;;58.80;32.85;;;;;;;;;;4932889;28;20535;-82
2022/05/01 00:24:49;;;;;;;56.15;32.25;;;;;;;;;;4933082;29;20645;-83
2022/05/01 00:27:16;;;;;;;54.55;32.83;;;;;;;;;;4931890;29;20472;-84
2022/05/01 00:29:43;;;;;;;57.92;32.05;;;;;;;;;;4934207;29;20131;-84
2022/05/01 00:32:10;;;;;;;55.63;32.30;;;;;;;;;;4932085;29;20059;-85
2022/05/01 00:37:22;;;;;;;56.65;32.20;;;;;;;;;;4932666;28;20131;-86
2022/05/01 00:39:48;;;;;;;54.05;32.05;;;;;;;;;;4948408;28;20535;-84
2022/05/01 00:42:18;;;;;;;49.22;31.10;;;;;;;;;;4933642;29;20082;-85
2022/05/01 00:44:46;;;;;;;58.63;31.58;;;;;;;;;;4932373;29;20063;-85
2022/05/01 00:47:12;;;;;;;61.03;32.38;;;;;;;;;;4935080;28;20110;-84
2022/05/01 00:49:39;;;;;;;56.65;31.17;;;;;;;;;;4932509;28;20056;-85
2022/05/01 00:52:09;;;;;;;53.83;30.20;;;;;;;;;;4930858;28;20043;-84
2022/05/01 00:54:39;;;;;;;61.20;30.90;;;;;;;;;;4932237;28;20078;-84
2022/05/01 00:57:07;;;;;;;60.47;32.05;;;;;;;;;;4932078;28;20059;-84
2022/05/01 00:59:35;;;;;;;55.03;31.55;;;;;;;;;;4930192;29;20134;-84
2022/05/01 01:02:03;;;;;;;57.90;30.23;;;;;;;;;;4928414;28;20043;-83
2022/05/01 01:04:30;;;;;;;53.58;30.27;;;;;;;;;;4931685;28;20487;-84
2022/05/01 01:06:56;;;;;;;62.78;31.48;;;;;;;;;;4943613;28;20134;-84
2022/05/01 01:09:23;;;;;;;57.00;29.45;;;;;;;;;;4931156;28;20152;-84
2022/05/01 01:12:53;;;;;;;59.22;30.42;;;;;;;;;;4934467;29;20519;-84
2022/05/01 01:14:37;;;;;;;63.60;30.63;;;;;;;;;;4934943;28;20684;-84
2022/05/01 01:17:04;;;;;;;57.65;30.85;;;;;;;;;;4936533;28;20048;-83
2022/05/01 01:19:30;;;;;;;53.20;29.33;;;;;;;;;;4936442;28;20134;-84
2022/05/01 01:21:58;;;;;;;53.90;29.10;;;;;;;;;;4935269;29;20138;-83
2022/05/01 01:24:25;;;;;;;49.85;29.40;;;;;;;;;;4939126;28;20043;-85
2022/05/01 01:26:52;;;;;;;57.33;29.70;;;;;;;;;;4943674;28;20322;-85
2022/05/01 01:32:08;;;;;;;56.15;28.27;;;;;;;;;;4936298;28;20054;-84
2022/05/01 01:34:37;;;;;;;54.67;27.92;;;;;;;;;;4935969;28;20040;-84
2022/05/01 01:37:06;;;;;;;;;;;;;;;;;;4937323;28;20075;-84
2022/05/01 01:39:33;;;;;;;54.78;27.38;;;;;;;;;;4937544;28;19954;-83
2022/05/01 01:42:04;;;;;;;52.35;28.48;;;;;;;;;;4936168;28;20424;-85
2022/05/01 01:44:30;;;;;;;59.28;28.67;;;;;;;;;;4935033;28;20066;-84
2022/05/01 01:46:57;;;;;;;52.88;27.65;;;;;;;;;;4937705;28;20454;-84
2022/05/01 01:49:24;;;;;;;59.20;28.30;;;;;;;;;;4947560;28;20060;-86
2022/05/01 01:51:50;;;;;;;45.15;28.08;;;;;;;;;;4942953;28;20468;-84
2022/05/01 01:54:17;;;;;;;52.92;28.30;;;;;;;;;;4935150;28;20461;-84
2022/05/01 01:56:44;;;;;;;55.22;27.67;;;;;;;;;;4943431;28;20173;-84
2022/05/01 01:59:11;;;;;;;63.33;28.38;;;;;;;;;;4949083;28;20071;-84
2022/05/01 02:01:42;;;;;;;53.30;28.80;;;;;;;;;;4938858;28;20083;-84
2022/05/01 02:04:10;;;;;;;52.65;27.42;;;;;;;;;;4934884;28;20054;-84
2022/05/01 02:06:37;;;;;;;51.83;27.30;;;;;;;;;;4943072;29;20442;-84
2022/05/01 02:09:06;;;;;;;57.92;28.73;;;;;;;;;;4934464;28;20040;-84
2022/05/01 02:11:36;;;;;;;;;;;;;;;;;;4940055;28;20056;-84
2022/05/01 02:14:05;;;;;;;60.83;27.30;;;;;;;;;;4938968;28;20363;-84
2022/05/01 02:16:32;;;;;;;43.88;27.35;;;;;;;;;;4938699;28;20052;-84
2022/05/01 02:18:58;;;;;;;60.05;27.30;;;;;;;;;;4945491;28;20047;-84
2022/05/01 02:21:34;;;;;;;55.45;28.05;;;;;;;;;;4933373;28;20123;-85
2022/05/01 02:24:05;;;;;;;49.40;27.52;;;;;;;;;;4928237;29;20052;-84
2022/05/01 02:26:32;;;;;;;56.33;28.73;;;;;;;;;;4929470;29;20122;-84
2022/05/01 02:29:02;;;;;;;51.90;28.10;;;;;;;;;;4941938;28;20048;-84
2022/05/01 02:31:28;;;;;;;58.42;29.05;;;;;;;;;;4943373;28;20059;-85
2022/05/01 02:33:55;;;;;;;53.13;28.77;;;;;;;;;;4949425;28;20075;-84
2022/05/01 02:36:22;;;;;;;57.42;29.20;;;;;;;;;;4934585;28;20064;-86
2022/05/01 02:38:49;;;;;;;53.47;28.30;;;;;;;;;;4935661;28;20524;-85
2022/05/01 02:41:16;;;;;;;62.50;28.88;;;;;;;;;;4934295;28;20142;-86
2022/05/01 02:43:43;;;;;;;58.35;28.45;;;;;;;;;;4935141;28;20540;-85
2022/05/01 02:46:09;;;;;;;52.28;27.80;;;;;;;;;;4933311;28;20463;-85
2022/05/01 02:48:36;;;;;;;59.20;28.80;;;;;;;;;;4933702;29;20048;-86
2022/05/01 02:51:04;;;;;;;57.28;29.23;;;;;;;;;;4935145;28;20067;-86
2022/05/01 02:53:33;;;;;;;54.13;27.42;;;;;;;;;;4931090;29;20496;-86
2022/05/01 02:56:00;;;;;;;64.80;29.50;;;;;;;;;;4933763;29;20111;-86
2022/05/01 02:58:30;;;;;;;59.53;27.77;;;;;;;;;;4933170;28;20074;-85
2022/05/01 03:00:57;;;;;;;57.50;26.58;;;;;;;;;;4934221;28;20067;-85
2022/05/01 03:03:24;;;;;;;62.53;29.08;;;;;;;;;;4934736;28;20078;-86
2022/05/01 03:05:52;;;;;;;60.45;27.45;;;;;;;;;;4933316;28;20058;-86
2022/05/01 03:08:21;;;;;;;54.87;28.57;;;;;;;;;;4932896;28;20130;-86
2022/05/01 03:10:48;;;;;;;63.38;27.80;;;;;;;;;;4934506;28;20410;-86
2022/05/01 03:13:15;;;;;;;58.00;27.25;;;;;;;;;;4934395;28;20044;-85
2022/05/01 03:15:41;;;;;;;45.33;26.45;;;;;;;;;;4934483;29;20138;-85
2022/05/01 03:23:38;;;;;;;51.72;27.30;;;;;;;;;;4934133;28;20530;-85
2022/05/01 03:26:05;;;;;;;51.15;26.70;;;;;;;;;;4933826;28;20098;-85
2022/05/01 03:28:32;;;;;;;51.13;26.30;;;;;;;;;;4933417;29;20071;-86
2022/05/01 03:30:59;;;;;;;53.05;26.83;;;;;;;;;;4933679;29;20417;-85
2022/05/01 03:33:26;;;;;;;57.60;26.85;;;;;;;;;;4933922;28;20151;-86
2022/05/01 03:35:53;;;;;;;53.03;26.92;;;;;;;;;;4932824;28;20115;-86
2022/05/01 03:38:21;;;;;;;56.30;26.70;;;;;;;;;;4932317;28;20071;-85
2022/05/01 03:40:48;;;;;;;46.92;26.75;;;;;;;;;;4933772;28;20048;-86
2022/05/01 03:43:19;;;;;;;54.03;27.88;;;;;;;;;;4929189;29;20056;-86
2022/05/01 03:45:45;;;;;;;55.47;27.65;;;;;;;;;;4932830;29;20106;-86
2022/05/01 03:48:12;;;;;;;50.30;26.40;;;;;;;;;;4934108;28;20099;-86
2022/05/01 03:50:39;;;;;;;56.08;27.15;;;;;;;;;;4933895;28;20079;-85
2022/05/01 03:53:07;;;;;;;55.78;26.92;;;;;;;;;;4932897;28;20094;-85
2022/05/01 03:55:36;;;;;;;48.88;26.30;;;;;;;;;;4932154;29;20067;-85
2022/05/01 03:58:03;;;;;;;;;;;;;;;;;;4934129;28;20857;-85
2022/05/01 04:00:29;;;;;;;46.05;25.00;;;;;;;;;;4933278;29;20099;-86
2022/05/01 04:02:56;;;;;;;49.13;25.63;;;;;;;;;;4933533;28;20067;-85
2022/05/01 04:05:23;;;;;;;43.58;26.08;;;;;;;;;;4932705;28;20075;-86
2022/05/01 04:07:49;;;;;;;47.85;25.77;;;;;;;;;;4933922;28;20083;-86
2022/05/01 04:10:16;;;;;;;45.95;25.90;;;;;;;;;;4933001;28;20064;-85
2022/05/01 04:12:44;;;;;;;52.35;26.25;;;;;;;;;;4933647;29;20507;-85
2022/05/01 04:15:14;;;;;;;47.92;25.05;;;;;;;;;;4932662;29;20107;-86
2022/05/01 04:17:41;;;;;;;53.95;26.63;;;;;;;;;;4933516;28;20075;-86
2022/05/01 04:20:10;;;;;;;49.35;26.05;;;;;;;;;;4932946;28;20063;-86
2022/05/01 04:22:43;;;;;;;;;;;;;;;;;;4933496;28;20067;-86
2022/05/01 04:25:20;;;;;;;49.65;26.42;;;;;;;;;;4928431;29;19946;-85
2022/05/01 04:27:52;;;;;;;49.88;26.27;;;;;;;;;;4918813;29;20098;-85
2022/05/01 04:30:20;;;;;;;52.38;26.08;;;;;;;;;;4932828;28;20075;-85
2022/05/01 04:32:48;;;;;;;53.75;26.45;;;;;;;;;;4932439;29;20127;-85
2022/05/01 04:35:37;;;;;;;42.92;24.88;;;;;;;;;;4932529;28;20067;-85
2022/05/01 04:38:08;;;;;;;47.55;24.70;;;;;;;;;;4932579;28;20051;-84
2022/05/01 04:40:40;;;;;;;52.53;25.50;;;;;;;;;;4933006;28;20055;-85
2022/05/01 04:43:08;;;;;;;47.13;25.40;;;;;;;;;;4931156;28;20044;-86
2022/05/01 04:45:36;;;;;;;47.88;25.05;;;;;;;;;;4931946;29;20138;-85
2022/05/01 04:48:05;;;;;;;52.08;25.48;;;;;;;;;;4932941;28;20098;-85
2022/05/01 04:50:31;;;;;;;46.38;25.52;;;;;;;;;;4930660;29;20086;-85
2022/05/01 04:53:00;;;;;;;51.60;24.85;;;;;;;;;;4932315;28;20068;-85
2022/05/01 04:55:28;;;;;;;44.97;24.40;;;;;;;;;;4932441;28;20052;-85
2022/05/01 04:57:55;;;;;;;45.17;24.08;;;;;;;;;;4932611;29;20296;-86
2022/05/01 05:00:21;;;;;;;48.78;24.55;;;;;;;;;;4932694;28;20134;-86
2022/05/01 05:02:50;;;;;;;45.65;24.88;;;;;;;;;;4932741;28;20178;-86
2022/05/01 05:05:19;;;;;;;47.50;24.05;;;;;;;;;;4932081;28;20111;-86
2022/05/01 05:07:46;;;;;;;47.88;24.17;;;;;;;;;;4932699;28;20237;-86
2022/05/01 05:10:13;;;;;;;38.28;25.15;;;;;;;;;;4927813;29;20592;-85
2022/05/01 05:12:42;;;;;;;47.15;25.10;;;;;;;;;;4933143;28;20123;-86
2022/05/01 05:15:10;;;;;;;;;;;;;;;;;;4939287;29;20569;-85
2022/05/01 05:17:37;;;;;;;43.53;23.20;;;;;;;;;;4932753;28;19929;-86
2022/05/01 05:20:05;;;;;;;41.60;24.90;;;;;;;;;;4931536;29;20083;-85
2022/05/01 05:22:32;;;;;;;44.78;24.83;;;;;;;;;;4932307;28;20550;-85
2022/05/01 05:24:59;;;;;;;41.00;23.33;;;;;;;;;;4932522;29;20131;-85
2022/05/01 05:27:25;;;;;;;44.05;24.40;;;;;;;;;;4932161;28;20134;-85
2022/05/01 05:29:53;;;;;;;50.53;24.95;;;;;;;;;;4929664;29;20072;-86
2022/05/01 05:32:20;;;;;;;39.60;24.13;;;;;;;;;;4932649;28;20082;-85
2022/05/01 05:34:48;;;;;;;45.45;24.38;;;;;;;;;;4929351;29;20142;-85
2022/05/01 05:37:16;;;;;;;41.72;23.05;;;;;;;;;;4930593;28;20122;-85
2022/05/01 05:39:43;;;;;;;44.93;25.10;;;;;;;;;;4917768;29;20094;-85
2022/05/01 05:42:11;;;;;;;41.70;23.88;;;;;;;;;;4928737;28;20495;-85
2022/05/01 05:44:42;;;;;;;39.85;24.27;;;;;;;;;;4931135;29;20063;-85
2022/05/01 05:47:09;;;;;;;38.35;22.75;;;;;;;;;;4930401;29;20090;-85
2022/05/01 05:49:36;;;;;;;43.53;23.10;;;;;;;;;;4930931;29;20131;-85
2022/05/01 05:52:03;;;;;;;40.03;22.13;;;;;;;;;;4930881;29;20059;-84
2022/05/01 05:54:29;;;;;;;38.17;22.92;;;;;;;;;;4930203;29;20072;-85
2022/05/01 05:56:56;;;;;;;37.92;22.35;;;;;;;;;;4932747;28;20054;-85
2022/05/01 05:59:23;;;;;;;41.97;22.60;;;;;;;;;;4931581;28;20115;-85
2022/05/01 06:01:49;;;;;;;41.60;22.17;;;;;;;;;;4933664;29;20588;-85
2022/05/01 06:04:16;;;;;;;31.00;21.25;;;;;;;;;;4935138;28;20047;-85
2022/05/01 06:06:43;;;;;;;40.72;22.70;;;;;;;;;;4934456;29;20119;-84
2022/05/01 06:09:09;;;;;;;35.90;21.00;;;;;;;;;;4931775;28;20075;-85
2022/05/01 06:11:36;;;;;;;30.77;21.27;;;;;;;;;;4935763;28;20552;-85
2022/05/01 06:14:03;;;;;;;32.17;20.40;;;;;;;;;;4934782;29;20138;-86
2022/05/01 06:16:31;;;;;;;31.92;19.52;;;;;;;;;;4936672;28;20044;-86
2022/05/01 06:18:59;;;;;;;31.83;20.10;;;;;;;;;;4942222;29;20468;-86
2022/05/01 06:21:26;;;;;;;32.28;19.65;;;;;;;;;;4938380;29;20505;-86
2022/05/01 06:23:53;;;;;;;32.38;19.33;;;;;;;;;;4936686;28;20068;-86
2022/05/01 06:26:19;;;;;;;27.15;18.92;;;;;;;;;;4938590;28;20052;-85
2022/05/01 06:28:52;;;;;;;36.78;19.70;;;;;;;;;;4939626;28;20096;-86
2022/05/01 06:31:19;;;;;;;28.48;18.30;;;;;;;;;;4935935;28;20192;-86
2022/05/01 06:33:46;;;;;;;29.92;17.15;;;;;;;;;;4928610;29;20051;-85
2022/05/01 06:36:17;;;;;;;26.35;17.48;;;;;;;;;;4930603;28;20122;-85
2022/05/01 06:38:44;;;;;;;32.92;18.20;;;;;;;;;;4930001;29;20062;-86
2022/05/01 06:41:12;;;;;;;36.38;18.50;;;;;;;;;;4926936;29;20055;-86
2022/05/01 06:43:38;;;;;;;31.08;16.75;;;;;;;;;;4931356;29;20124;-85
2022/05/01 06:46:05;;;;;;;26.50;16.25;;;;;;;;;;4928608;29;20098;-84
2022/05/01 06:48:34;;;;;;;27.88;16.38;;;;;;;;;;4930137;29;20055;-86
2022/05/01 06:51:01;;;;;;;28.48;17.95;;;;;;;;;;4930932;29;20468;-86
2022/05/01 06:53:31;;;;;;;23.77;15.70;;;;;;;;;;4930088;29;20520;-86
2022/05/01 06:55:57;;;;;;;27.92;16.05;;;;;;;;;;4928745;29;20093;-86
2022/05/01 06:58:24;;;;;;;23.15;15.20;;;;;;;;;;4929051;29;20098;-86
2022/05/01 07:00:54;;;;;;;25.48;16.17;;;;;;;;;;4929260;29;20060;-85
2022/05/01 07:03:21;;;;;;;27.13;15.25;;;;;;;;;;4929174;29;20052;-86
2022/05/01 07:05:48;;;;;;;26.15;15.77;;;;;;;;;;4928064;29;20047;-85
2022/05/01 07:08:15;;;;;;;22.60;14.30;;;;;;;;;;4928068;29;20143;-87
2022/05/01 07:10:42;;;;;;;28.83;15.38;;;;;;;;;;4928927;28;20477;-86
2022/05/01 07:13:10;;;;;;;27.75;15.32;;;;;;;;;;4932968;28;20181;-87
2022/05/01 07:15:38;;;;;;;25.67;14.73;;;;;;;;;;4935121;29;20051;-87
2022/05/01 07:18:05;;;;;;;21.30;14.55;;;;;;;;;;4935358;28;20068;-85
2022/05/01 07:20:35;;;;;;;27.70;14.48;;;;;;;;;;4935225;29;20678;-86
2022/05/01 07:23:03;;;;;;;24.90;14.07;;;;;;;;;;4934790;28;20043;-85
2022/05/01 07:25:30;;;;;;;27.42;14.45;;;;;;;;;;4934317;28;20445;-85
2022/05/01 07:27:56;;;;;;;26.33;14.80;;;;;;;;;;4934284;29;20102;-85
2022/05/01 07:30:23;;;;;;;21.58;13.68;;;;;;;;;;4933665;28;20115;-85
2022/05/01 07:32:50;;;;;;;22.63;13.32;;;;;;;;;;4931134;29;20111;-85
2022/05/01 07:35:17;;;;;;;24.15;14.10;;;;;;;;;;4932616;28;20048;-86
2022/05/01 07:37:43;;;;;;;23.88;14.10;;;;;;;;;;4932175;28;20084;-85
2022/05/01 07:40:11;;;;;;;22.42;13.40;;;;;;;;;;4927220;29;20553;-84
2022/05/01 07:42:38;;;;;;;24.25;13.93;;;;;;;;;;4932450;28;20079;-85
2022/05/01 07:45:05;;;;;;;21.45;13.40;;;;;;;;;;4930696;29;20135;-84
2022/05/01 07:47:31;;;;;;;26.77;13.82;;;;;;;;;;4949760;28;20047;-86
2022/05/01 07:49:59;;;;;;;20.55;13.25;;;;;;;;;;4929165;29;20106;-86
2022/05/01 07:52:26;;;;;;;21.98;13.27;;;;;;;;;;4926158;29;20122;-85
2022/05/01 07:54:52;;;;;;;17.73;12.75;;;;;;;;;;4927718;29;20424;-85
2022/05/01 07:57:29;;;;;;;22.45;13.43;;;;;;;;;;4928839;29;20048;-85
2022/05/01 07:59:56;;;;;;;20.92;13.40;;;;;;;;;;4925344;29;20051;-87
2022/05/01 08:02:23;;;;;;;17.98;12.02;;;;;;;;;;4926315;29;20556;-85
2022/05/01 08:04:50;;;;;;;20.45;12.45;;;;;;;;;;4926604;29;20100;-86
2022/05/01 08:07:16;;;;;;;17.77;12.77;;;;;;;;;;4927800;29;20044;-84
2022/05/01 08:09:43;;;;;;;20.35;12.50;;;;;;;;;;4922434;29;20044;-84
2022/05/01 08:12:15;;;;;;;17.00;11.35;;;;;;;;;;4923349;28;20480;-86
2022/05/01 08:14:46;;;;;;;14.18;11.15;;;;;;;;;;4927180;28;20107;-84
2022/05/01 08:17:13;;;;;;;19.33;11.77;;;;;;;;;;4924723;28;20143;-85
2022/05/01 08:22:25;;;;;;;15.50;11.68;;;;;;;;;;4922820;29;20055;-86
2022/05/01 08:24:54;;;;;;;20.48;11.07;;;;;;;;;;4921667;29;20043;-85
2022/05/01 08:27:21;;;;;;;11.20;9.35;;;;;;;;;;4924172;29;20058;-85
2022/05/01 08:29:47;;;;;;;13.55;11.02;;;;;;;;;;4928079;29;20516;-86
2022/05/01 08:32:14;;;;;;;14.77;10.95;;;;;;;;;;4927928;28;20051;-86
2022/05/01 08:34:41;;;;;;;12.02;10.32;;;;;;;;;;4925336;29;20111;-85
2022/05/01 08:37:08;;;;;;;14.70;10.60;;;;;;;;;;4923159;29;20516;-85
2022/05/01 08:39:35;;;;;;;13.68;10.98;;;;;;;;;;4929802;29;20098;-84
2022/05/01 08:42:02;;;;;;;12.90;10.93;;;;;;;;;;4928885;29;20169;-85
2022/05/01 08:44:36;;;;;;;14.43;10.88;;;;;;;;;;4930332;29;20058;-85
2022/05/01 08:47:14;;;;;;;13.00;9.52;;;;;;;;;;4928885;28;20508;-84
2022/05/01 08:49:43;;;;;;;16.08;11.07;;;;;;;;;;4929642;28;20047;-85
2022/05/01 08:52:11;;;;;;;11.93;10.30;;;;;;;;;;4931340;29;20047;-85
2022/05/01 08:54:38;;;;;;;13.02;10.13;;;;;;;;;;4934450;29;20055;-87
2022/05/01 08:57:05;;;;;;;14.70;10.82;;;;;;;;;;4928322;29;20062;-84
2022/05/01 08:59:33;;;;;;;15.10;10.30;;;;;;;;;;4930524;29;20071;-85
2022/05/01 09:02:00;;;;;;;13.02;9.80;;;;;;;;;;4930253;29;20059;-84
2022/05/01 09:04:28;;;;;;;14.85;10.63;;;;;;;;;;4929669;29;20055;-82
2022/05/01 09:06:55;;;;;;;12.07;10.02;;;;;;;;;;4928732;29;20059;-83
2022/05/01 09:09:23;;;;;;;14.50;10.57;;;;;;;;;;4928550;29;20138;-82
2022/05/01 09:14:38;;;;;;;12.32;10.32;;;;;;;;;;4933339;29;20052;-83
2022/05/01 09:17:08;;;;;;;12.10;8.63;;;;;;;;;;4926284;28;20516;-84
2022/05/01 09:19:42;;;;;;;11.38;9.27;;;;;;;;;;4937567;28;20051;-85
2022/05/01 09:22:11;;;;;;;11.10;9.32;;;;;;;;;;4940919;28;20123;-85
2022/05/01 09:24:38;;;;;;;13.80;10.32;;;;;;;;;;4929720;28;20705;-84
2022/05/01 09:27:05;;;;;;;13.82;10.52;;;;;;;;;;4940530;28;20063;-86
2022/05/01 09:29:32;;;;;;;16.50;10.75;;;;;;;;;;4935609;28;20083;-84
2022/05/01 09:32:00;;;;;;;15.68;10.95;;;;;;;;;;4938550;28;20129;-86
2022/05/01 09:34:32;;;;;;;14.90;10.05;;;;;;;;;;4932455;28;20102;-85
2022/05/01 09:37:00;;;;;;;11.20;9.95;;;;;;;;;;4940889;28;20047;-85
2022/05/01 09:39:29;;;;;;;12.73;8.77;;;;;;;;;;4939431;28;20054;-83
2022/05/01 09:42:17;;;;;;;11.30;9.40;;;;;;;;;;4952706;28;20055;-83
2022/05/01 09:44:43;;;;;;;11.23;9.73;;;;;;;;;;4942761;28;20050;-83
2022/05/01 09:47:11;;;;;;;14.40;10.80;;;;;;;;;;4934171;28;20063;-84
2022/05/01 09:49:48;;;;;;;11.35;10.15;;;;;;;;;;4939640;28;20078;-83
2022/05/01 09:52:16;;;;;;;12.70;9.68;;;;;;;;;;4935048;28;20048;-83
2022/05/01 09:55:04;;;;;;;14.13;9.35;;;;;;;;;;4934252;28;20103;-83
2022/05/01 09:57:31;;;;;;;14.90;9.90;;;;;;;;;;4929612;29;20111;-83
2022/05/01 09:59:58;;;;;;;14.52;10.45;;;;;;;;;;4931263;28;20126;-82
2022/05/01 10:02:29;;;;;;;12.55;9.90;;;;;;;;;;4929466;28;20520;-85
2022/05/01 10:05:03;;;;;;;16.38;10.43;;;;;;;;;;4929949;28;20069;-81
2022/05/01 10:07:36;;;;;;;14.93;10.90;;;;;;;;;;4926755;28;20052;-84
2022/05/01 10:10:07;;;;;;;12.23;10.38;;;;;;;;;;4930428;29;20078;-83
2022/05/01 10:12:40;;;;;;;13.75;10.00;;;;;;;;;;4931149;28;20051;-85
2022/05/01 10:15:08;;;;;;;12.05;9.82;;;;;;;;;;4930396;29;20051;-85
2022/05/01 10:17:35;;;;;;;12.65;10.35;;;;;;;;;;4925806;29;20059;-83
2022/05/01 10:20:03;;;;;;;12.63;10.77;;;;;;;;;;4928799;29;20079;-85
2022/05/01 10:22:32;;;;;;;18.38;11.07;;;;;;;;;;4927681;29;20043;-82
2022/05/01 10:25:00;;;;;;;14.50;9.60;;;;;;;;;;4928558;29;20068;-84
2022/05/01 10:28:18;;;;;;;13.52;9.32;;;;;;;;;;4928329;28;20130;-85
2022/05/01 10:34:23;;;;;;;13.70;9.02;;;;;;;;;;4869796;29;20124;-85
2022/05/01 10:37:18;;;;;;;10.55;8.65;;;;;;;;;;4866060;29;20075;-83
2022/05/01 10:39:46;;;;;;;15.68;9.60;;;;;;;;;;4869385;29;20084;-84
2022/05/01 10:42:34;;;;;;;13.20;9.85;;;;;;;;;;4868215;29;20056;-84
2022/05/01 10:45:01;;;;;;;12.95;9.73;;;;;;;;;;4854510;29;20060;-84
2022/05/01 10:47:38;;;;;;;12.45;8.88;;;;;;;;;;4854632;29;20048;-85
2022/05/01 10:50:11;;;;;;;13.38;9.63;;;;;;;;;;4869780;29;20044;-84
2022/05/01 10:53:03;;;;;;;13.15;10.15;;;;;;;;;;4870412;29;20213;-84
2022/05/01 10:55:48;;;;;;;12.63;10.38;;;;;;;;;;4852990;29;20108;-85
2022/05/01 10:58:26;;;;;;;11.82;9.15;;;;;;;;;;4871204;29;20108;-83
2022/05/01 11:00:55;;;;;;;11.10;9.27;;;;;;;;;;4855063;29;20471;-84
2022/05/01 11:03:26;;;;;;;15.55;11.10;;;;;;;;;;4870437;29;20506;-83
2022/05/01 11:06:08;;;;;;;12.13;10.07;;;;;;;;;;4876390;29;20056;-83
2022/05/01 11:08:42;;;;;;;12.93;9.80;;;;;;;;;;4889757;29;20052;-85
2022/05/01 11:11:12;;;;;;;20.83;15.27;;;;;;;;;;4911940;29;20044;-85
2022/05/01 11:13:41;;;;;;;41.28;30.13;;;;;;;;;;4923962;29;20051;-83
2022/05/01 11:16:09;;;;;;;13.40;10.43;;;;;;;;;;4929568;29;20054;-82
2022/05/01 11:18:42;;;;;;;14.27;10.57;;;;;;;;;;4929819;28;20134;-82
2022/05/01 11:21:21;;;;;;;15.85;10.70;;;;;;;;;;4920173;29;20052;-86
2022/05/01 11:24:02;;;;;;;13.25;10.70;;;;;;;;;;4929644;29;20107;-83
2022/05/01 11:26:29;;;;;;;13.32;10.40;;;;;;;;;;4929678;29;20082;-85
2022/05/01 11:29:13;;;;;;;14.38;11.20;;;;;;;;;;4927003;29;20055;-84
2022/05/01 11:31:57;;;;;;;13.40;10.10;;;;;;;;;;4925947;29;20047;-84
2022/05/01 11:34:23;;;;;;;12.68;9.75;;;;;;;;;;4929979;29;20050;-84
2022/05/01 11:36:50;;;;;;;14.57;10.57;;;;;;;;;;4928583;29;20587;-82
2022/05/01 11:39:17;;;;;;;14.38;9.55;;;;;;;;;;4927087;28;20048;-83
2022/05/01 11:41:44;;;;;;;13.48;9.45;;;;;;;;;;4922749;29;20052;-83
2022/05/01 11:44:23;;;;;;;14.25;7.90;;;;;;;;;;4925560;29;20110;-82
2022/05/01 11:46:54;;;;;;;12.05;8.98;;;;;;;;;;4930124;29;20058;-83
2022/05/01 11:49:21;;;;;;;12.88;8.55;;;;;;;;;;4926287;28;20047;-82
2022/05/01 11:51:48;;;;;;;11.05;7.85;;;;;;;;;;4926928;28;20464;-82
2022/05/01 11:54:17;;;;;;;12.57;8.80;;;;;;;;;;4926425;29;20047;-85
2022/05/01 12:02:25;;;;;;;10.65;8.20;;;;;;;;;;4932563;28;20500;-86
2022/05/01 12:05:02;;;;;;;12.10;8.43;;;;;;;;;;4933455;29;20500;-86
2022/05/01 12:07:28;;;;;;;15.18;8.93;;;;;;;;;;4933693;28;20090;-85
2022/05/01 12:09:55;;;;;;;10.23;7.38;;;;;;;;;;4935121;28;20093;-85
2022/05/01 12:12:28;;;;;;;12.27;7.38;;;;;;;;;;4933964;28;20051;-86
2022/05/01 12:14:55;;;;;;;13.10;7.50;;;;;;;;;;4925226;29;20083;-87
2022/05/01 12:17:21;;;;;;;12.60;9.63;;;;;;;;;;4933518;28;20135;-86
2022/05/01 12:19:54;;;;;;;10.88;7.82;;;;;;;;;;4933050;28;20107;-87
2022/05/01 12:22:23;;;;;;;10.35;8.30;;;;;;;;;;4933451;28;20638;-85
2022/05/01 12:24:54;;;;;;;13.48;8.07;;;;;;;;;;4934605;29;20048;-86
2022/05/01 12:27:26;;;;;;;12.00;7.40;;;;;;;;;;4933579;28;20119;-86
2022/05/01 12:29:56;;;;;;;13.07;7.90;;;;;;;;;;4933790;28;20058;-86
2022/05/01 12:32:22;;;;;;;11.98;8.05;;;;;;;;;;4933573;28;20263;-86
2022/05/01 12:34:52;;;;;;;12.82;7.95;;;;;;;;;;4932049;28;20070;-89
2022/05/01 12:37:22;;;;;;;9.70;7.93;;;;;;;;;;4930747;28;20131;-84
2022/05/01 12:40:02;;;;;;;11.32;8.27;;;;;;;;;;4930685;28;20079;-88
2022/05/01 12:45:24;;;;;;;13.70;8.85;;;;;;;;;;4929004;28;20052;-84
2022/05/01 12:47:53;;;;;;;12.75;7.78;;;;;;;;;;4932333;28;20048;-87
2022/05/01 12:50:19;;;;;;;12.25;7.60;;;;;;;;;;4932102;28;20116;-84
2022/05/01 12:52:49;;;;;;;12.10;7.55;;;;;;;;;;4933033;28;20052;-85
2022/05/01 12:55:19;;;;;;;12.80;8.18;;;;;;;;;;4932413;28;20107;-87
2022/05/01 12:57:48;;;;;;;14.50;8.32;;;;;;;;;;4931955;28;20079;-87
2022/05/01 13:00:30;;;;;;;11.52;7.57;;;;;;;;;;4914970;29;20080;-87
2022/05/01 13:03:24;;;;;;;11.20;6.40;;;;;;;;;;4930046;28;20146;-86
2022/05/01 13:06:09;;;;;;;12.75;8.43;;;;;;;;;;4932374;28;20048;-86
2022/05/01 13:09:09;;;;;;;14.30;8.68;;;;;;;;;;4932179;28;20043;-87
2022/05/01 13:11:36;;;;;;;11.23;7.75;;;;;;;;;;4932932;28;20062;-86
2022/05/01 13:14:08;;;;;;;14.60;7.13;;;;;;;;;;4933057;28;20131;-87
2022/05/01 13:16:34;;;;;;;16.70;8.20;;;;;;;;;;4931163;28;20517;-86
2022/05/01 13:19:06;;;;;;;37.60;9.18;;;;;;;;;;4929914;29;20040;-85
2022/05/01 13:21:35;;;;;;;13.20;7.63;;;;;;;;;;4933366;28;20491;-84
2022/05/01 13:24:06;;;;;;;12.10;7.88;;;;;;;;;;4927363;29;20056;-86
2022/05/01 13:26:34;;;;;;;11.95;7.75;;;;;;;;;;4930539;29;20048;-84
2022/05/01 13:29:02;;;;;;;14.32;9.25;;;;;;;;;;4927580;29;20107;-85
2022/05/01 13:31:30;;;;;;;12.82;8.15;;;;;;;;;;4926283;29;20268;-86
2022/05/01 13:33:58;;;;;;;15.55;9.48;;;;;;;;;;4929344;29;20059;-84
2022/05/01 13:36:25;;;;;;;13.77;9.48;;;;;;;;;;4931042;29;20751;-85
2022/05/01 13:38:58;;;;;;;16.13;8.70;;;;;;;;;;4931814;29;20401;-87
2022/05/01 13:46:56;;;;;;;11.45;7.43;;;;;;;;;;4930529;29;20066;-84
2022/05/01 13:49:24;;;;;;;13.25;8.35;;;;;;;;;;4931082;29;20465;-85
2022/05/01 13:51:53;;;;;;;21.77;8.38;;;;;;;;;;4906616;29;20048;-83
2022/05/01 13:54:19;;;;;;;13.65;9.07;;;;;;;;;;4940742;28;20040;-85
2022/05/01 13:56:46;;;;;;;14.27;10.10;;;;;;;;;;4928605;29;20421;-84
2022/05/01 13:59:17;;;;;;;14.95;9.02;;;;;;;;;;4927582;29;20107;-83
2022/05/01 14:01:43;;;;;;;13.25;9.65;;;;;;;;;;4927258;28;20127;-85
2022/05/01 14:04:10;;;;;;;11.85;8.50;;;;;;;;;;4932775;28;20054;-82
2022/05/01 14:06:43;;;;;;;12.90;8.88;;;;;;;;;;4930196;28;20103;-81
2022/05/01 14:09:11;;;;;;;11.50;7.82;;;;;;;;;;4946885;28;20047;-83
2022/05/01 14:11:38;;;;;;;;;;;;;;;;;;4941798;28;20055;-85
2022/05/01 14:14:08;;;;;;;12.63;9.15;;;;;;;;;;4940392;28;19925;-81
2022/05/01 14:16:39;;;;;;;12.50;9.65;;;;;;;;;;4926069;29;20119;-82
2022/05/01 14:19:11;;;;;;;11.70;8.68;;;;;;;;;;4925143;28;20058;-83
2022/05/01 14:21:41;;;;;;;13.38;9.18;;;;;;;;;;4928630;28;20075;-86
2022/05/01 14:24:29;;;;;;;14.45;9.25;;;;;;;;;;4926939;28;20150;-83
2022/05/01 14:26:56;;;;;;;18.15;9.73;;;;;;;;;;4930350;28;20052;-82
2022/05/01 14:29:23;;;;;;;13.25;8.52;;;;;;;;;;4929571;28;20048;-83
2022/05/01 14:32:20;;;;;;;12.80;9.20;;;;;;;;;;4929065;28;20043;-83
2022/05/01 14:35:12;;;;;;;13.35;10.13;;;;;;;;;;4926492;28;20075;-85
2022/05/01 14:38:04;;;;;;;12.68;9.02;;;;;;;;;;4925553;28;20067;-84
2022/05/01 14:40:34;;;;;;;11.40;8.70;;;;;;;;;;4927710;28;20441;-84
2022/05/01 14:43:18;;;;;;;15.00;7.88;;;;;;;;;;4927803;28;20044;-84
2022/05/01 14:45:50;;;;;;;11.05;9.18;;;;;;;;;;4929056;29;20465;-83
2022/05/01 14:48:36;;;;;;;11.25;8.13;;;;;;;;;;4927024;28;20048;-85
2022/05/01 14:51:05;;;;;;;13.43;8.55;;;;;;;;;;4928344;28;20072;-84
2022/05/01 14:53:32;;;;;;;10.27;8.13;;;;;;;;;;4929188;29;20052;-82
2022/05/01 14:55:59;;;;;;;12.50;9.20;;;;;;;;;;4925410;28;20381;-83
2022/05/01 15:06:48;;;;;;;15.93;8.60;;;;;;;;;;4928942;29;20052;-84
2022/05/01 15:09:16;;;;;;;14.35;9.05;;;;;;;;;;4927209;29;20130;-83
2022/05/01 15:11:43;;;;;;;13.13;9.07;;;;;;;;;;4927897;29;20527;-83
2022/05/01 15:14:12;;;;;;;19.15;9.45;;;;;;;;;;4928900;29;20067;-83
2022/05/01 15:16:58;;;;;;;18.00;9.52;;;;;;;;;;4933369;28;20072;-84
2022/05/01 15:19:53;;;;;;;15.25;10.93;;;;;;;;;;4929756;29;20567;-83